Time;durP1;ratioP1;P1;durP2;ratioP2;P2;SDS_P1;SDS_P2;PMS_P1;PMS_P2;Temp;Humidity;BMP_temperature;BMP_pressure;BME280_temperature;BME280_humidity;BME280_pressure;Samples;Min_cycle;Max_cycle;Signal;HPM_P1;HPM_P2
2021/11/07 00:00:00;;;;;;;10.93;9.93;;;;;;;;;;5001254;28;24420;-62
2021/11/07 00:02:39;;;;;;;10.15;9.20;;;;;;;;;;5001395;28;24513;-62
2021/11/07 00:05:06;;;;;;;8.60;7.80;;;;;;;;;;4997684;28;24421;-62
2021/11/07 00:07:48;;;;;;;9.05;8.00;;;;;;;;;;4997409;28;24787;-62
2021/11/07 00:10:18;;;;;;;7.53;6.82;;;;;;;;;;5002758;28;24424;-61
2021/11/07 00:12:46;;;;;;;7.20;6.60;;;;;;;;;;5001141;28;24759;-62
2021/11/07 00:15:14;;;;;;;7.72;7.03;;;;;;;;;;4997493;28;24443;-62
2021/11/07 00:17:45;;;;;;;6.90;6.30;;;;;;;;;;4998749;28;24759;-62
2021/11/07 00:20:18;;;;;;;7.40;6.70;;;;;;;;;;5002903;28;24981;-62
2021/11/07 00:25:27;;;;;;;7.40;6.70;;;;;;;;;;5002171;28;24423;-62
2021/11/07 00:28:03;;;;;;;7.47;6.70;;;;;;;;;;4996757;28;24899;-62
2021/11/07 00:33:09;;;;;;;8.03;7.23;;;;;;;;;;4998396;28;24480;-62
2021/11/07 00:38:13;;;;;;;6.95;6.25;;;;;;;;;;4995585;28;24405;-62
2021/11/07 00:40:44;;;;;;;7.50;6.80;;;;;;;;;;4998645;28;24452;-62
2021/11/07 00:46:06;;;;;;;6.50;5.90;;;;;;;;;;4998015;28;24411;-62
2021/11/07 00:48:41;;;;;;;6.80;6.10;;;;;;;;;;5002088;28;24446;-62
2021/11/07 00:51:20;;;;;;;6.70;6.10;;;;;;;;;;4998337;28;24404;-62
2021/11/07 00:56:27;;;;;;;7.03;6.40;;;;;;;;;;4998480;28;24435;-62
2021/11/07 01:01:25;;;;;;;6.47;5.88;;;;;;;;;;5001867;28;24450;-62
2021/11/07 01:03:50;;;;;;;6.38;5.70;;;;;;;;;;4998879;28;24869;-62
2021/11/07 01:06:16;;;;;;;5.95;5.40;;;;;;;;;;4996689;28;24436;-61
2021/11/07 01:08:41;;;;;;;6.82;6.13;;;;;;;;;;4996628;28;24478;-61
2021/11/07 01:11:06;;;;;;;6.30;5.70;;;;;;;;;;5000515;28;24428;-61
2021/11/07 01:13:32;;;;;;;6.00;5.23;;;;;;;;;;5000015;28;24526;-61
2021/11/07 01:15:57;;;;;;;5.63;5.13;;;;;;;;;;5000176;28;24404;-61
2021/11/07 01:18:23;;;;;;;6.40;5.80;;;;;;;;;;5001757;28;24405;-61
2021/11/07 01:20:48;;;;;;;6.50;5.90;;;;;;;;;;5000292;28;24427;-61
2021/11/07 01:23:28;;;;;;;5.50;4.90;;;;;;;;;;4995796;28;24507;-61
2021/11/07 01:26:01;;;;;;;5.50;5.00;;;;;;;;;;4997919;28;24867;-61
2021/11/07 01:28:28;;;;;;;5.28;4.78;;;;;;;;;;5001951;28;24487;-62
2021/11/07 01:30:58;;;;;;;5.10;4.60;;;;;;;;;;4998886;28;24554;-61
2021/11/07 01:33:26;;;;;;;5.88;5.35;;;;;;;;;;4999561;28;25171;-62
2021/11/07 01:38:29;;;;;;;5.68;4.53;;;;;;;;;;5002081;28;24546;-61
2021/11/07 01:41:01;;;;;;;5.85;5.35;;;;;;;;;;5006014;28;24498;-60
2021/11/07 01:43:27;;;;;;;4.70;4.30;;;;;;;;;;5005753;28;24563;-60
2021/11/07 01:46:01;;;;;;;4.80;4.38;;;;;;;;;;5004012;28;24575;-60
2021/11/07 01:48:30;;;;;;;5.00;4.50;;;;;;;;;;5001118;28;25234;-61
2021/11/07 01:51:00;;;;;;;4.40;4.00;;;;;;;;;;5000504;28;24455;-61
2021/11/07 01:53:30;;;;;;;4.63;4.22;;;;;;;;;;5001895;28;24412;-60
2021/11/07 01:55:56;;;;;;;4.73;4.33;;;;;;;;;;5005063;28;24424;-61
2021/11/07 01:58:22;;;;;;;5.13;4.00;;;;;;;;;;5005276;28;24424;-61
2021/11/07 02:00:48;;;;;;;4.97;4.57;;;;;;;;;;5003729;28;24775;-61
2021/11/07 02:03:13;;;;;;;5.40;4.50;;;;;;;;;;5001011;28;24435;-62
2021/11/07 02:05:39;;;;;;;4.80;4.30;;;;;;;;;;5001782;28;24419;-61
2021/11/07 02:08:06;;;;;;;4.13;3.83;;;;;;;;;;5000696;28;24447;-61
2021/11/07 02:10:31;;;;;;;4.10;3.70;;;;;;;;;;5003513;28;24420;-61
2021/11/07 02:12:56;;;;;;;4.80;4.40;;;;;;;;;;5006887;28;24411;-61
2021/11/07 02:15:22;;;;;;;5.13;4.20;;;;;;;;;;5005423;28;24413;-61
2021/11/07 02:17:47;;;;;;;4.97;4.50;;;;;;;;;;5003527;28;24423;-61
2021/11/07 02:20:14;;;;;;;4.47;4.13;;;;;;;;;;4999045;28;24584;-62
2021/11/07 02:22:40;;;;;;;4.22;3.92;;;;;;;;;;5001198;28;24495;-62
2021/11/07 02:25:05;;;;;;;3.92;3.63;;;;;;;;;;5004031;28;24486;-61
2021/11/07 02:27:31;;;;;;;3.80;3.50;;;;;;;;;;5004960;28;25000;-61
2021/11/07 02:29:56;;;;;;;3.80;3.50;;;;;;;;;;5002352;28;24412;-61
2021/11/07 02:32:21;;;;;;;3.90;3.50;;;;;;;;;;5001320;28;24478;-63
2021/11/07 02:34:47;;;;;;;3.95;3.65;;;;;;;;;;5004868;28;24834;-62
2021/11/07 02:37:14;;;;;;;4.60;3.97;;;;;;;;;;5004490;28;25051;-61
2021/11/07 02:39:39;;;;;;;4.10;3.70;;;;;;;;;;5004501;28;24416;-61
2021/11/07 02:42:05;;;;;;;4.00;3.63;;;;;;;;;;4999929;28;24984;-61
2021/11/07 02:44:34;;;;;;;3.60;3.30;;;;;;;;;;4998518;28;24533;-61
2021/11/07 02:47:00;;;;;;;4.00;3.70;;;;;;;;;;5000116;28;24439;-61
2021/11/07 02:49:26;;;;;;;3.70;3.40;;;;;;;;;;5004409;28;24411;-61
2021/11/07 02:51:51;;;;;;;3.70;3.40;;;;;;;;;;5001961;28;24460;-61
2021/11/07 02:54:16;;;;;;;3.40;3.20;;;;;;;;;;5004469;28;24511;-61
2021/11/07 02:56:42;;;;;;;3.90;3.50;;;;;;;;;;5001801;28;24834;-61
2021/11/07 02:59:08;;;;;;;4.07;3.67;;;;;;;;;;4998605;28;24485;-61
2021/11/07 03:01:35;;;;;;;4.10;3.80;;;;;;;;;;4999769;28;24458;-61
2021/11/07 03:04:05;;;;;;;4.10;3.70;;;;;;;;;;5004050;28;24420;-61
2021/11/07 03:06:31;;;;;;;4.00;3.70;;;;;;;;;;5004383;28;24510;-60
2021/11/07 03:08:56;;;;;;;4.00;3.65;;;;;;;;;;4999200;28;24463;-60
2021/11/07 03:11:22;;;;;;;3.60;3.30;;;;;;;;;;4998920;28;24404;-61
2021/11/07 03:13:48;;;;;;;4.40;4.00;;;;;;;;;;5000970;28;24799;-61
2021/11/07 03:16:13;;;;;;;4.50;4.10;;;;;;;;;;5003500;28;24544;-60
2021/11/07 03:18:40;;;;;;;4.70;4.30;;;;;;;;;;5003604;28;24515;-60
2021/11/07 03:21:15;;;;;;;4.50;4.05;;;;;;;;;;5002231;28;24456;-60
2021/11/07 03:23:43;;;;;;;5.07;4.57;;;;;;;;;;5001582;28;24463;-60
2021/11/07 03:26:12;;;;;;;5.43;4.93;;;;;;;;;;4998583;28;24429;-60
2021/11/07 03:28:40;;;;;;;5.00;4.45;;;;;;;;;;5002958;28;24421;-60
2021/11/07 03:33:44;;;;;;;7.63;5.43;;;;;;;;;;5004242;28;24416;-60
2021/11/07 03:36:10;;;;;;;6.10;5.50;;;;;;;;;;4997704;28;24416;-60
2021/11/07 03:38:35;;;;;;;6.20;5.60;;;;;;;;;;4999551;28;24419;-61
2021/11/07 03:41:02;;;;;;;6.90;6.10;;;;;;;;;;5001058;28;24419;-61
2021/11/07 03:43:28;;;;;;;6.70;6.00;;;;;;;;;;5002178;28;24539;-61
2021/11/07 03:45:54;;;;;;;7.90;7.10;;;;;;;;;;5001533;28;24560;-61
2021/11/07 03:48:19;;;;;;;6.60;6.00;;;;;;;;;;5003288;28;24825;-61
2021/11/07 03:50:45;;;;;;;6.00;5.40;;;;;;;;;;5000916;28;24416;-61
2021/11/07 03:53:11;;;;;;;5.32;4.82;;;;;;;;;;4997702;28;25034;-60
2021/11/07 03:55:36;;;;;;;5.27;4.77;;;;;;;;;;4999780;28;24503;-61
2021/11/07 03:58:01;;;;;;;7.03;6.33;;;;;;;;;;4996833;28;24789;-61
2021/11/07 04:00:27;;;;;;;6.90;6.20;;;;;;;;;;4999481;28;24488;-61
2021/11/07 04:02:52;;;;;;;6.57;5.95;;;;;;;;;;5003056;28;24947;-61
2021/11/07 04:05:18;;;;;;;7.15;6.55;;;;;;;;;;5003007;28;24495;-61
2021/11/07 04:07:43;;;;;;;6.63;5.70;;;;;;;;;;5000493;28;24516;-61
2021/11/07 04:10:10;;;;;;;7.00;6.30;;;;;;;;;;4998442;28;24921;-61
2021/11/07 04:12:35;;;;;;;6.63;6.03;;;;;;;;;;4998654;28;24412;-61
2021/11/07 04:15:00;;;;;;;6.53;5.83;;;;;;;;;;5003038;28;24454;-61
2021/11/07 04:17:26;;;;;;;6.30;5.70;;;;;;;;;;5003343;28;24416;-61
2021/11/07 04:19:51;;;;;;;7.17;6.47;;;;;;;;;;5000250;28;24474;-61
2021/11/07 04:22:16;;;;;;;9.25;7.32;;;;;;;;;;4998489;28;24424;-60
2021/11/07 04:24:41;;;;;;;8.33;7.10;;;;;;;;;;4998983;28;24878;-60
2021/11/07 04:27:07;;;;;;;8.93;7.80;;;;;;;;;;5000443;28;24440;-61
2021/11/07 04:29:32;;;;;;;9.30;7.40;;;;;;;;;;5002028;28;24420;-60
2021/11/07 04:31:58;;;;;;;9.50;8.05;;;;;;;;;;5000744;28;24423;-61
2021/11/07 04:34:24;;;;;;;7.40;6.60;;;;;;;;;;4998366;28;24420;-61
2021/11/07 04:36:49;;;;;;;5.50;5.00;;;;;;;;;;4996948;28;24420;-61
2021/11/07 04:39:14;;;;;;;5.60;5.10;;;;;;;;;;5002328;28;24428;-61
2021/11/07 04:41:40;;;;;;;4.80;4.30;;;;;;;;;;5002107;28;24474;-61
2021/11/07 04:44:05;;;;;;;5.10;4.60;;;;;;;;;;4997631;28;24412;-61
2021/11/07 04:46:31;;;;;;;4.80;4.20;;;;;;;;;;4997593;28;24999;-61
2021/11/07 04:48:56;;;;;;;4.10;3.70;;;;;;;;;;5000668;28;24405;-62
2021/11/07 04:51:22;;;;;;;3.43;3.13;;;;;;;;;;5001868;28;24415;-62
2021/11/07 04:53:47;;;;;;;3.40;3.10;;;;;;;;;;4991590;28;24997;-62
2021/11/07 04:56:12;;;;;;;3.63;3.33;;;;;;;;;;4980661;28;24397;-62
2021/11/07 04:58:38;;;;;;;3.70;3.33;;;;;;;;;;4994754;28;25031;-61
2021/11/07 05:01:04;;;;;;;3.50;3.20;;;;;;;;;;4996901;28;24399;-62
2021/11/07 05:03:29;;;;;;;3.70;3.25;;;;;;;;;;4998246;28;24459;-61
2021/11/07 05:05:55;;;;;;;3.80;3.50;;;;;;;;;;5001849;28;24428;-62
2021/11/07 05:08:20;;;;;;;3.83;3.33;;;;;;;;;;5002277;28;24945;-62
2021/11/07 05:10:46;;;;;;;3.30;3.00;;;;;;;;;;4998641;28;24404;-62
2021/11/07 05:13:12;;;;;;;3.40;3.10;;;;;;;;;;4996730;28;24404;-61
2021/11/07 05:15:38;;;;;;;3.50;3.20;;;;;;;;;;4981011;28;24381;-62
2021/11/07 05:18:03;;;;;;;3.33;3.10;;;;;;;;;;4998259;28;24450;-62
2021/11/07 05:20:29;;;;;;;3.40;3.10;;;;;;;;;;5002078;28;24491;-61
2021/11/07 05:22:54;;;;;;;3.30;3.00;;;;;;;;;;4998954;28;25214;-62
2021/11/07 05:25:19;;;;;;;3.53;2.97;;;;;;;;;;4983290;28;24417;-61
2021/11/07 05:27:44;;;;;;;3.00;2.80;;;;;;;;;;4977227;28;24455;-62
2021/11/07 05:30:12;;;;;;;3.10;2.90;;;;;;;;;;4979123;28;24448;-61
2021/11/07 05:32:37;;;;;;;2.90;2.60;;;;;;;;;;4982914;28;24417;-62
2021/11/07 05:35:02;;;;;;;3.00;2.80;;;;;;;;;;4980710;28;24755;-62
2021/11/07 05:37:28;;;;;;;3.88;3.50;;;;;;;;;;4986420;28;24503;-62
2021/11/07 05:39:53;;;;;;;3.40;3.10;;;;;;;;;;4994169;28;24403;-61
2021/11/07 05:42:19;;;;;;;2.90;2.70;;;;;;;;;;5014534;28;24489;-62
2021/11/07 05:44:44;;;;;;;3.25;2.95;;;;;;;;;;5017714;28;25176;-61
2021/11/07 05:47:09;;;;;;;3.10;2.90;;;;;;;;;;4982529;28;24483;-63
2021/11/07 05:49:34;;;;;;;3.17;2.97;;;;;;;;;;4982563;28;24396;-61
2021/11/07 05:51:59;;;;;;;3.40;3.10;;;;;;;;;;4996635;28;24993;-61
2021/11/07 05:54:25;;;;;;;3.00;2.70;;;;;;;;;;4996022;28;24484;-61
2021/11/07 05:56:50;;;;;;;3.10;2.90;;;;;;;;;;4982330;28;24780;-61
2021/11/07 05:59:15;;;;;;;2.90;2.70;;;;;;;;;;4982347;28;24417;-61
2021/11/07 06:01:40;;;;;;;3.20;2.93;;;;;;;;;;4987522;28;25028;-61
2021/11/07 06:04:06;;;;;;;4.10;3.10;;;;;;;;;;5000576;28;24448;-61
2021/11/07 06:06:32;;;;;;;2.55;2.35;;;;;;;;;;4999419;28;24436;-61
2021/11/07 06:08:57;;;;;;;3.20;2.90;;;;;;;;;;4996525;28;24415;-62
2021/11/07 06:11:23;;;;;;;3.50;2.80;;;;;;;;;;4999395;28;24874;-61
2021/11/07 06:13:48;;;;;;;2.53;2.33;;;;;;;;;;5000203;28;24404;-61
2021/11/07 06:16:14;;;;;;;3.00;2.70;;;;;;;;;;4997779;28;24423;-61
2021/11/07 06:18:39;;;;;;;3.37;3.07;;;;;;;;;;4991438;28;24471;-61
2021/11/07 06:21:04;;;;;;;2.75;2.55;;;;;;;;;;4989119;28;24678;-62
2021/11/07 06:23:31;;;;;;;3.10;2.90;;;;;;;;;;4981962;28;24788;-61
2021/11/07 06:25:56;;;;;;;3.40;3.10;;;;;;;;;;4985182;28;25049;-61
2021/11/07 06:28:21;;;;;;;3.00;2.80;;;;;;;;;;4987611;28;24421;-61
2021/11/07 06:30:48;;;;;;;3.00;2.70;;;;;;;;;;4999900;28;24416;-60
2021/11/07 06:33:13;;;;;;;3.60;3.30;;;;;;;;;;4988873;28;24559;-61
2021/11/07 06:35:39;;;;;;;3.10;2.90;;;;;;;;;;4989771;28;24420;-61
2021/11/07 06:38:04;;;;;;;3.10;2.80;;;;;;;;;;4988519;28;24511;-61
2021/11/07 06:40:29;;;;;;;3.23;2.93;;;;;;;;;;4994902;28;24408;-60
2021/11/07 06:42:54;;;;;;;2.72;2.53;;;;;;;;;;4999168;28;24459;-61
2021/11/07 06:45:19;;;;;;;3.60;3.30;;;;;;;;;;4996767;28;24512;-61
2021/11/07 06:47:45;;;;;;;3.33;3.03;;;;;;;;;;4995500;28;24420;-61
2021/11/07 06:50:11;;;;;;;3.00;2.70;;;;;;;;;;4998061;28;24991;-61
2021/11/07 06:52:36;;;;;;;2.88;2.60;;;;;;;;;;5002095;28;24575;-61
2021/11/07 06:55:03;;;;;;;2.70;2.50;;;;;;;;;;4995925;28;24502;-61
2021/11/07 06:57:28;;;;;;;2.67;2.47;;;;;;;;;;4998509;28;24436;-61
2021/11/07 06:59:53;;;;;;;2.80;2.60;;;;;;;;;;5000962;28;24396;-60
2021/11/07 07:02:18;;;;;;;3.72;3.00;;;;;;;;;;4999847;28;24428;-61
2021/11/07 07:04:43;;;;;;;2.63;2.33;;;;;;;;;;4998872;28;24421;-61
2021/11/07 07:07:09;;;;;;;2.50;2.30;;;;;;;;;;4999750;28;24527;-61
2021/11/07 07:09:45;;;;;;;2.80;2.60;;;;;;;;;;5001351;28;24482;-61
2021/11/07 07:12:26;;;;;;;2.60;2.40;;;;;;;;;;5000552;28;24560;-61
2021/11/07 07:23:22;;;;;;;2.60;2.20;;;;;;;;;;5000359;28;24953;-62
2021/11/07 07:33:59;;;;;;;2.70;2.30;;;;;;;;;;5002027;28;24822;-62
2021/11/07 07:36:25;;;;;;;2.58;2.20;;;;;;;;;;4988393;28;25008;-62
2021/11/07 07:38:50;;;;;;;2.30;2.00;;;;;;;;;;4996840;28;24424;-62
2021/11/07 07:41:15;;;;;;;2.10;1.90;;;;;;;;;;4999403;28;24415;-62
2021/11/07 07:43:41;;;;;;;2.50;2.30;;;;;;;;;;4999352;28;24692;-62
2021/11/07 07:46:11;;;;;;;2.78;2.58;;;;;;;;;;4981590;28;25070;-62
2021/11/07 07:48:44;;;;;;;2.60;2.40;;;;;;;;;;4999397;28;24542;-62
2021/11/07 07:51:10;;;;;;;2.65;2.40;;;;;;;;;;4989021;28;24425;-62
2021/11/07 07:53:36;;;;;;;2.80;2.60;;;;;;;;;;4995712;28;24537;-62
2021/11/07 07:56:01;;;;;;;2.10;2.00;;;;;;;;;;5001554;28;25235;-62
2021/11/07 07:58:26;;;;;;;2.50;2.30;;;;;;;;;;5002711;28;24653;-62
2021/11/07 08:00:53;;;;;;;2.70;2.30;;;;;;;;;;4999829;28;24565;-62
2021/11/07 08:03:19;;;;;;;2.70;2.50;;;;;;;;;;4992491;28;24405;-62
2021/11/07 08:05:44;;;;;;;2.70;2.50;;;;;;;;;;4989917;28;24786;-62
2021/11/07 08:08:09;;;;;;;2.60;2.40;;;;;;;;;;5002057;28;24431;-62
2021/11/07 08:10:34;;;;;;;2.67;2.47;;;;;;;;;;5001104;28;24423;-62
2021/11/07 08:12:59;;;;;;;2.85;2.65;;;;;;;;;;4997087;28;24835;-61
2021/11/07 08:15:24;;;;;;;2.67;2.42;;;;;;;;;;4994429;28;24431;-62
2021/11/07 08:17:50;;;;;;;3.30;2.50;;;;;;;;;;4994222;28;24420;-62
2021/11/07 08:20:17;;;;;;;3.40;2.30;;;;;;;;;;4998304;28;24420;-62
2021/11/07 08:22:43;;;;;;;3.87;3.50;;;;;;;;;;4998219;28;24488;-61
2021/11/07 08:25:15;;;;;;;3.40;3.10;;;;;;;;;;5002953;28;24416;-61
2021/11/07 08:27:41;;;;;;;11.57;8.13;;;;;;;;;;5002383;28;24420;-61
2021/11/07 08:30:07;;;;;;;9.85;7.22;;;;;;;;;;4998905;28;24540;-61
2021/11/07 08:32:32;;;;;;;8.75;5.85;;;;;;;;;;4998957;28;24393;-63
2021/11/07 08:34:58;;;;;;;12.60;7.67;;;;;;;;;;4997237;28;24412;-59
2021/11/07 08:37:47;;;;;;;8.10;6.07;;;;;;;;;;4998326;28;24491;-60
2021/11/07 08:40:16;;;;;;;4.40;4.00;;;;;;;;;;5002371;28;24392;-60
2021/11/07 08:42:57;;;;;;;2.40;2.20;;;;;;;;;;4999892;28;24958;-60
2021/11/07 09:04:24;;;;;;;2.60;2.30;;;;;;;;;;4991248;28;24508;-60
2021/11/07 09:09:17;;;;;;;2.93;2.00;;;;;;;;;;4982455;28;24454;-60
2021/11/07 09:11:51;;;;;;;2.90;2.70;;;;;;;;;;4980471;28;24492;-61
2021/11/07 09:14:18;;;;;;;2.20;2.00;;;;;;;;;;4983017;28;24484;-61
2021/11/07 09:16:43;;;;;;;2.15;2.05;;;;;;;;;;4978778;28;24405;-61
2021/11/07 09:19:10;;;;;;;2.50;2.30;;;;;;;;;;4978859;28;24412;-60
2021/11/07 09:21:39;;;;;;;4.10;2.30;;;;;;;;;;4979074;28;24392;-61
2021/11/07 09:24:11;;;;;;;2.72;2.20;;;;;;;;;;4980755;28;24421;-60
2021/11/07 09:26:44;;;;;;;2.30;2.10;;;;;;;;;;4982315;28;24419;-61
2021/11/07 09:29:23;;;;;;;2.43;2.23;;;;;;;;;;4982521;28;24892;-61
2021/11/07 09:37:43;;;;;;;2.45;2.25;;;;;;;;;;4942293;28;24426;-63
2021/11/07 09:40:14;;;;;;;2.80;2.60;;;;;;;;;;4982616;28;24440;-60
2021/11/07 09:45:18;;;;;;;2.50;2.20;;;;;;;;;;4982562;28;24763;-60
2021/11/07 09:47:48;;;;;;;2.70;2.50;;;;;;;;;;4979210;28;24583;-60
2021/11/07 09:50:14;;;;;;;2.50;2.30;;;;;;;;;;4976826;28;24405;-60
2021/11/07 09:52:46;;;;;;;2.13;1.92;;;;;;;;;;4978828;28;24911;-60
2021/11/07 09:55:12;;;;;;;2.25;2.05;;;;;;;;;;4982422;28;25094;-61
2021/11/07 09:57:38;;;;;;;2.40;1.98;;;;;;;;;;4984717;28;24539;-61
2021/11/07 10:00:08;;;;;;;2.40;2.20;;;;;;;;;;4985081;28;24748;-61
2021/11/07 10:02:33;;;;;;;2.00;1.90;;;;;;;;;;4985811;28;24416;-61
2021/11/07 10:05:00;;;;;;;2.20;2.10;;;;;;;;;;4992465;28;24411;-61
2021/11/07 10:07:29;;;;;;;1.97;1.87;;;;;;;;;;4999644;28;24417;-62
2021/11/07 10:09:58;;;;;;;2.10;2.00;;;;;;;;;;5003312;28;24404;-62
2021/11/07 10:13:12;;;;;;;1.90;1.80;;;;;;;;;;5005155;28;24393;-62
2021/11/07 10:15:24;;;;;;;2.10;1.90;;;;;;;;;;4999716;28;24783;-62
2021/11/07 10:17:52;;;;;;;1.60;1.50;;;;;;;;;;5001820;28;24431;-63
2021/11/07 10:20:28;;;;;;;1.90;1.80;;;;;;;;;;4999640;28;24844;-62
2021/11/07 10:23:12;;;;;;;1.70;1.60;;;;;;;;;;5001117;28;24439;-61
2021/11/07 10:25:41;;;;;;;3.28;2.20;;;;;;;;;;5004953;28;24396;-62
2021/11/07 10:28:27;;;;;;;4.32;2.60;;;;;;;;;;5005346;28;24420;-61
2021/11/07 10:31:06;;;;;;;2.50;2.10;;;;;;;;;;5002349;28;24420;-61
2021/11/07 10:33:49;;;;;;;1.70;1.60;;;;;;;;;;4983738;28;24495;-61
2021/11/07 10:47:12;;;;;;;1.60;1.50;;;;;;;;;;4984964;28;24831;-62
2021/11/07 10:52:31;;;;;;;1.40;1.30;;;;;;;;;;4998843;28;24447;-61
2021/11/07 10:54:58;;;;;;;1.20;1.10;;;;;;;;;;5004871;28;24393;-62
2021/11/07 10:57:25;;;;;;;1.30;1.20;;;;;;;;;;5004474;28;24411;-62
2021/11/07 11:00:09;;;;;;;1.30;1.20;;;;;;;;;;5001950;28;24427;-63
2021/11/07 11:02:38;;;;;;;1.30;1.20;;;;;;;;;;5002184;28;24393;-62
2021/11/07 11:05:05;;;;;;;1.30;1.20;;;;;;;;;;4986315;28;24467;-62
2021/11/07 11:07:30;;;;;;;1.80;1.30;;;;;;;;;;4978759;28;24464;-62
2021/11/07 11:10:12;;;;;;;1.30;1.20;;;;;;;;;;4984726;28;24416;-62
2021/11/07 11:13:02;;;;;;;1.23;1.00;;;;;;;;;;4966549;28;24935;-61
2021/11/07 11:15:36;;;;;;;1.15;1.05;;;;;;;;;;4978887;28;24508;-61
2021/11/07 11:18:22;;;;;;;1.50;1.40;;;;;;;;;;4979099;28;24500;-62
2021/11/07 11:24:08;;;;;;;1.38;1.20;;;;;;;;;;4982256;28;24440;-63
2021/11/07 11:29:09;;;;;;;1.60;1.50;;;;;;;;;;4982275;28;25363;-62
2021/11/07 11:32:19;;;;;;;2.60;1.30;;;;;;;;;;4984238;28;24468;-62
2021/11/07 11:35:27;;;;;;;1.23;1.10;;;;;;;;;;4969667;28;24416;-64
2021/11/07 11:39:59;;;;;;;2.10;1.30;;;;;;;;;;4982441;28;24468;-61
2021/11/07 11:42:29;;;;;;;1.10;1.00;;;;;;;;;;4983837;28;24405;-62
2021/11/07 11:44:56;;;;;;;1.35;1.25;;;;;;;;;;4981781;28;25017;-62
2021/11/07 11:55:14;;;;;;;1.40;1.30;;;;;;;;;;4981678;28;24487;-62
2021/11/07 12:03:01;;;;;;;1.20;1.10;;;;;;;;;;4981436;28;24443;-61
2021/11/07 12:05:36;;;;;;;1.60;1.30;;;;;;;;;;5005495;28;24545;-61
2021/11/07 12:08:08;;;;;;;1.27;1.17;;;;;;;;;;5011315;28;24444;-62
2021/11/07 12:10:43;;;;;;;1.20;1.10;;;;;;;;;;4996443;28;24427;-62
2021/11/07 12:13:26;;;;;;;1.40;1.30;;;;;;;;;;5001056;28;24424;-62
2021/11/07 12:15:54;;;;;;;1.40;1.30;;;;;;;;;;4993583;28;24417;-62
2021/11/07 12:18:19;;;;;;;1.10;1.02;;;;;;;;;;4999966;28;25044;-63
2021/11/07 12:20:52;;;;;;;1.20;1.10;;;;;;;;;;4994714;28;24436;-62
2021/11/07 12:23:21;;;;;;;1.60;1.20;;;;;;;;;;4999430;28;24994;-62
2021/11/07 12:25:47;;;;;;;1.60;1.20;;;;;;;;;;4998964;28;24789;-62
2021/11/07 12:28:13;;;;;;;1.48;1.38;;;;;;;;;;4993119;28;24487;-63
2021/11/07 12:30:40;;;;;;;1.42;1.33;;;;;;;;;;4992710;28;24421;-62
2021/11/07 12:33:18;;;;;;;1.33;1.23;;;;;;;;;;4994097;28;24467;-61
2021/11/07 12:36:15;;;;;;;1.52;1.30;;;;;;;;;;4986253;28;24424;-62
2021/11/07 12:41:27;;;;;;;1.40;1.30;;;;;;;;;;4987517;28;24823;-61
2021/11/07 12:44:04;;;;;;;1.20;1.10;;;;;;;;;;4990698;28;24985;-62
2021/11/07 12:46:40;;;;;;;1.57;1.47;;;;;;;;;;4990163;28;24499;-61
2021/11/07 12:49:15;;;;;;;1.38;1.27;;;;;;;;;;4970294;28;24429;-64
2021/11/07 12:51:41;;;;;;;1.20;1.20;;;;;;;;;;4998023;28;24409;-61
2021/11/07 12:54:24;;;;;;;1.50;1.40;;;;;;;;;;4998916;28;24989;-62
2021/11/07 12:56:54;;;;;;;1.50;1.40;;;;;;;;;;4998704;28;25400;-62
2021/11/07 12:59:22;;;;;;;1.70;1.60;;;;;;;;;;4998564;28;24416;-62
2021/11/07 13:01:55;;;;;;;2.20;1.40;;;;;;;;;;4989278;28;24984;-62
2021/11/07 13:04:24;;;;;;;1.60;1.50;;;;;;;;;;4987949;28;24425;-62
2021/11/07 13:06:50;;;;;;;1.60;1.50;;;;;;;;;;4996354;28;24797;-61
2021/11/07 13:09:19;;;;;;;1.40;1.30;;;;;;;;;;5002279;28;24796;-61
2021/11/07 13:11:49;;;;;;;1.50;1.40;;;;;;;;;;4988447;28;24406;-62
2021/11/07 13:14:29;;;;;;;1.70;1.60;;;;;;;;;;4990374;28;24404;-62
2021/11/07 13:17:32;;;;;;;1.40;1.30;;;;;;;;;;4996219;28;24456;-62
2021/11/07 13:20:25;;;;;;;1.50;1.40;;;;;;;;;;5002057;28;24415;-62
2021/11/07 13:23:11;;;;;;;1.60;1.50;;;;;;;;;;4981275;28;24484;-63
2021/11/07 13:29:07;;;;;;;1.73;1.45;;;;;;;;;;4983183;28;24593;-62
2021/11/07 13:31:19;;;;;;;1.70;1.60;;;;;;;;;;4993966;28;24496;-62
2021/11/07 13:33:48;;;;;;;2.33;1.70;;;;;;;;;;5003524;28;24415;-62
2021/11/07 13:36:16;;;;;;;1.75;1.55;;;;;;;;;;5005096;28;24758;-63
2021/11/07 13:38:46;;;;;;;2.00;1.70;;;;;;;;;;5004524;28;24495;-63
2021/11/07 13:41:26;;;;;;;1.75;1.65;;;;;;;;;;4997307;28;24567;-62
2021/11/07 13:43:59;;;;;;;2.10;1.90;;;;;;;;;;4999536;28;24440;-63
2021/11/07 13:46:24;;;;;;;1.80;1.60;;;;;;;;;;4986598;28;25093;-62
2021/11/07 13:49:03;;;;;;;1.70;1.60;;;;;;;;;;5002895;28;24515;-64
2021/11/07 13:51:32;;;;;;;1.90;1.80;;;;;;;;;;5001489;28;24408;-63
2021/11/07 13:53:59;;;;;;;1.70;1.60;;;;;;;;;;4993260;28;24417;-63
2021/11/07 13:56:24;;;;;;;1.80;1.70;;;;;;;;;;4994839;28;24480;-63
2021/11/07 13:58:52;;;;;;;1.70;1.60;;;;;;;;;;5003190;28;24786;-63
2021/11/07 14:01:17;;;;;;;1.70;1.60;;;;;;;;;;4999734;28;24471;-62
2021/11/07 14:03:43;;;;;;;1.80;1.70;;;;;;;;;;4981511;28;24474;-63
2021/11/07 14:06:18;;;;;;;1.60;1.50;;;;;;;;;;5004720;28;24783;-63
2021/11/07 14:08:44;;;;;;;1.55;1.45;;;;;;;;;;4970154;28;24419;-63
2021/11/07 14:11:11;;;;;;;2.00;1.90;;;;;;;;;;5003885;28;24422;-63
2021/11/07 14:13:41;;;;;;;2.00;1.65;;;;;;;;;;5001482;28;24416;-64
2021/11/07 14:16:13;;;;;;;2.10;1.90;;;;;;;;;;4999567;28;24496;-63
2021/11/07 14:18:45;;;;;;;2.00;1.90;;;;;;;;;;5001492;28;24395;-63
2021/11/07 14:21:14;;;;;;;1.73;1.63;;;;;;;;;;5005239;28;24423;-63
2021/11/07 14:26:10;;;;;;;2.20;2.00;;;;;;;;;;5001165;28;24996;-62
2021/11/07 14:29:00;;;;;;;2.30;2.10;;;;;;;;;;5001356;28;24408;-63
2021/11/07 14:31:30;;;;;;;3.30;3.00;;;;;;;;;;4999257;28;25031;-65
2021/11/07 14:36:42;;;;;;;2.30;2.20;;;;;;;;;;5004886;28;24508;-62
2021/11/07 14:39:30;;;;;;;2.70;2.50;;;;;;;;;;5000944;28;24630;-62
2021/11/07 14:42:51;;;;;;;2.58;2.38;;;;;;;;;;4994222;28;24508;-63
2021/11/07 14:45:33;;;;;;;2.80;2.60;;;;;;;;;;4925564;29;24524;-61
2021/11/07 14:51:06;;;;;;;4.40;4.10;;;;;;;;;;5000003;28;24416;-63
2021/11/07 14:53:41;;;;;;;2.60;2.40;;;;;;;;;;4997065;28;24976;-63
2021/11/07 14:56:20;;;;;;;2.60;2.40;;;;;;;;;;5004384;28;25096;-62
2021/11/07 14:59:14;;;;;;;2.08;1.98;;;;;;;;;;5002497;28;24962;-63
2021/11/07 15:02:02;;;;;;;2.38;2.17;;;;;;;;;;5003487;28;24411;-63
2021/11/07 15:04:37;;;;;;;2.30;2.20;;;;;;;;;;5003843;28;24475;-63
2021/11/07 15:07:11;;;;;;;2.30;2.10;;;;;;;;;;4998286;28;24845;-62
2021/11/07 15:12:17;;;;;;;2.30;2.10;;;;;;;;;;5004152;28;24409;-62
2021/11/07 15:15:19;;;;;;;2.30;2.10;;;;;;;;;;4999555;28;24791;-62
2021/11/07 15:17:39;;;;;;;2.70;2.40;;;;;;;;;;5000967;28;24423;-63
2021/11/07 15:20:16;;;;;;;2.10;2.00;;;;;;;;;;4998168;28;24498;-62
2021/11/07 15:22:44;;;;;;;1.90;1.80;;;;;;;;;;4998143;28;24435;-62
2021/11/07 15:25:09;;;;;;;2.13;2.03;;;;;;;;;;5004306;28;24818;-63
2021/11/07 15:27:35;;;;;;;2.20;2.00;;;;;;;;;;5000872;28;24428;-62
2021/11/07 15:30:03;;;;;;;2.20;2.00;;;;;;;;;;4998446;28;24678;-62
2021/11/07 15:32:35;;;;;;;2.20;2.10;;;;;;;;;;4998640;28;24408;-61
2021/11/07 15:35:01;;;;;;;2.60;2.40;;;;;;;;;;5003506;28;24439;-63
2021/11/07 15:37:30;;;;;;;2.50;2.30;;;;;;;;;;5004303;28;24523;-61
2021/11/07 15:39:57;;;;;;;2.42;2.22;;;;;;;;;;4999319;28;24424;-62
2021/11/07 15:42:26;;;;;;;3.00;2.80;;;;;;;;;;4998095;28;24495;-61
2021/11/07 15:44:58;;;;;;;3.10;2.80;;;;;;;;;;4999400;28;24495;-62
2021/11/07 15:47:30;;;;;;;3.10;2.80;;;;;;;;;;5006683;28;24446;-64
2021/11/07 15:50:45;;;;;;;2.60;2.40;;;;;;;;;;5005983;28;24412;-63
2021/11/07 16:01:06;;;;;;;2.85;2.55;;;;;;;;;;4984750;28;24387;-63
2021/11/07 16:03:43;;;;;;;2.80;2.60;;;;;;;;;;4997330;28;24989;-63
2021/11/07 16:06:27;;;;;;;2.40;2.20;;;;;;;;;;4997303;28;24427;-63
2021/11/07 16:19:11;;;;;;;3.10;2.70;;;;;;;;;;4999663;28;24471;-62
2021/11/07 16:21:41;;;;;;;3.10;2.90;;;;;;;;;;4996232;28;24563;-65
2021/11/07 16:24:08;;;;;;;2.90;2.70;;;;;;;;;;5001124;28;24890;-62
2021/11/07 16:26:34;;;;;;;4.07;3.20;;;;;;;;;;5003239;28;24458;-63
2021/11/07 16:28:59;;;;;;;3.40;2.73;;;;;;;;;;5001298;28;24478;-63
2021/11/07 16:31:28;;;;;;;3.15;2.80;;;;;;;;;;5003389;28;24416;-62
2021/11/07 16:33:56;;;;;;;3.90;3.30;;;;;;;;;;4996544;28;24424;-62
2021/11/07 16:36:23;;;;;;;3.97;3.08;;;;;;;;;;4999648;28;24942;-63
2021/11/07 16:38:55;;;;;;;3.77;3.00;;;;;;;;;;5002356;28;24409;-60
2021/11/07 16:43:48;;;;;;;3.40;3.10;;;;;;;;;;5002249;28;24934;-62
2021/11/07 16:46:17;;;;;;;3.33;3.03;;;;;;;;;;5004958;28;24500;-62
2021/11/07 16:48:45;;;;;;;3.13;2.80;;;;;;;;;;4998899;28;24443;-64
2021/11/07 16:51:35;;;;;;;3.40;3.08;;;;;;;;;;5000988;28;24435;-63
2021/11/07 16:54:02;;;;;;;4.05;3.10;;;;;;;;;;4999561;28;24503;-61
2021/11/07 16:56:33;;;;;;;3.15;2.95;;;;;;;;;;4983730;28;24428;-63
2021/11/07 17:01:39;;;;;;;4.70;3.80;;;;;;;;;;5000835;28;24431;-63
2021/11/07 17:04:11;;;;;;;3.40;3.10;;;;;;;;;;4999063;28;24876;-62
2021/11/07 17:06:41;;;;;;;5.22;3.70;;;;;;;;;;4999936;28;24558;-62
2021/11/07 17:11:34;;;;;;;4.38;3.90;;;;;;;;;;5003055;28;24404;-63
2021/11/07 17:14:00;;;;;;;4.10;3.70;;;;;;;;;;4999752;28;24968;-63
2021/11/07 17:16:29;;;;;;;4.77;4.30;;;;;;;;;;5000323;28;24424;-63
2021/11/07 17:18:54;;;;;;;4.60;3.22;;;;;;;;;;4995726;28;24420;-62
2021/11/07 17:24:26;;;;;;;3.67;3.25;;;;;;;;;;4996658;28;25169;-63